Time;durP1;ratioP1;P1;durP2;ratioP2;P2;SDS_P1;SDS_P2;PMS_P1;PMS_P2;Temp;Humidity;BMP_temperature;BMP_pressure;BME280_temperature;BME280_humidity;BME280_pressure;Samples;Min_cycle;Max_cycle;Signal;HPM_P1;HPM_P2
2022/04/29 00:01:37;;;;;;;12.65;6.20;;;7.90;99.90;;;;;;5012334;28;20064;-72
2022/04/29 00:04:04;;;;;;;12.02;5.28;;;7.90;99.90;;;;;;5011358;28;20083;-73
2022/04/29 00:06:30;;;;;;;14.43;5.55;;;7.90;99.90;;;;;;5012170;28;20497;-73
2022/04/29 00:08:56;;;;;;;7.43;5.80;;;7.80;99.90;;;;;;5011813;28;20030;-72
2022/04/29 00:11:21;;;;;;;8.85;6.30;;;7.80;99.90;;;;;;5012871;28;20033;-72
2022/04/29 00:13:47;;;;;;;16.23;6.82;;;7.80;99.90;;;;;;5016025;28;20021;-72
2022/04/29 00:16:13;;;;;;;8.98;5.72;;;7.80;99.90;;;;;;5015743;28;20026;-72
2022/04/29 00:18:38;;;;;;;11.82;6.60;;;7.80;99.90;;;;;;5015177;28;20069;-72
2022/04/29 00:21:04;;;;;;;14.10;5.68;;;7.80;99.90;;;;;;5015395;28;20041;-72
2022/04/29 00:23:30;;;;;;;9.07;5.00;;;7.80;99.90;;;;;;5015646;28;20034;-72
2022/04/29 00:25:56;;;;;;;8.00;5.55;;;7.70;99.90;;;;;;5014645;28;20033;-72
2022/04/29 00:28:22;;;;;;;12.15;5.18;;;7.70;99.90;;;;;;5015650;28;20036;-72
2022/04/29 00:30:50;;;;;;;7.20;5.43;;;7.70;99.90;;;;;;5015120;28;20088;-72
2022/04/29 00:33:16;;;;;;;11.07;6.05;;;7.90;99.90;;;;;;5014983;28;20030;-72
2022/04/29 00:35:41;;;;;;;12.60;5.80;;;7.70;99.90;;;;;;5015742;28;20048;-72
2022/04/29 00:38:07;;;;;;;8.75;5.50;;;7.70;99.90;;;;;;5015433;28;20607;-72
2022/04/29 00:40:32;;;;;;;8.93;5.40;;;7.70;99.90;;;;;;5015002;28;20033;-73
2022/04/29 00:42:58;;;;;;;11.63;5.32;;;7.70;99.90;;;;;;5015335;28;20470;-71
2022/04/29 00:45:25;;;;;;;10.98;5.60;;;7.70;99.90;;;;;;5015322;28;20417;-71
2022/04/29 00:47:52;;;;;;;15.27;6.93;;;7.70;99.90;;;;;;5014373;28;20485;-73
2022/04/29 00:50:21;;;;;;;8.90;5.68;;;7.70;99.90;;;;;;5015371;28;20037;-71
2022/04/29 00:52:50;;;;;;;8.93;5.82;;;7.70;99.90;;;;;;5014628;28;20029;-72
2022/04/29 00:55:16;;;;;;;14.13;5.78;;;7.60;99.90;;;;;;5019437;28;20046;-73
2022/04/29 00:57:44;;;;;;;6.43;5.13;;;7.60;99.90;;;;;;5015565;28;20030;-73
2022/04/29 01:00:14;;;;;;;10.13;5.30;;;7.60;99.90;;;;;;5014103;28;20030;-72
2022/04/29 01:02:42;;;;;;;10.52;5.82;;;7.60;99.90;;;;;;5031917;28;20029;-71
2022/04/29 01:05:13;;;;;;;15.93;5.53;;;7.60;99.90;;;;;;5034414;28;20029;-72
2022/04/29 01:07:40;;;;;;;7.32;5.13;;;7.60;99.90;;;;;;5034534;28;20033;-72
2022/04/29 01:10:08;;;;;;;12.27;5.25;;;7.50;99.90;;;;;;5034363;28;20042;-73
2022/04/29 01:12:37;;;;;;;7.63;5.47;;;7.50;99.90;;;;;;5034721;28;20092;-72
2022/04/29 01:15:09;;;;;;;13.25;5.47;;;7.50;99.90;;;;;;5033640;28;20049;-71
2022/04/29 01:17:36;;;;;;;9.48;5.50;;;7.40;99.90;;;;;;5034981;28;20429;-71
2022/04/29 01:20:07;;;;;;;9.10;5.20;;;7.40;99.90;;;;;;5035366;28;20022;-72
2022/04/29 01:22:33;;;;;;;10.57;5.43;;;7.40;99.90;;;;;;5032777;28;20052;-72
2022/04/29 01:24:59;;;;;;;11.93;6.07;;;7.50;99.90;;;;;;5034790;28;20057;-72
2022/04/29 01:27:24;;;;;;;13.05;6.07;;;7.50;99.90;;;;;;5035305;28;20108;-72
2022/04/29 01:29:58;;;;;;;10.60;6.10;;;7.50;99.90;;;;;;5034196;28;20017;-72
2022/04/29 01:32:25;;;;;;;17.08;5.85;;;7.50;99.90;;;;;;5034651;28;20477;-72
2022/04/29 01:34:50;;;;;;;7.10;5.72;;;7.50;99.90;;;;;;5034027;28;20065;-72
2022/04/29 01:37:16;;;;;;;8.23;5.75;;;7.50;99.90;;;;;;5034025;28;20027;-72
2022/04/29 01:39:41;;;;;;;9.15;5.53;;;7.50;99.90;;;;;;5034353;28;20025;-72
2022/04/29 01:42:07;;;;;;;9.60;5.90;;;7.40;99.90;;;;;;5033244;28;20416;-73
2022/04/29 01:44:33;;;;;;;9.68;5.93;;;7.40;99.90;;;;;;5034039;28;20100;-72
2022/04/29 01:46:58;;;;;;;9.05;5.68;;;7.40;99.90;;;;;;5033647;28;20505;-72
2022/04/29 01:49:24;;;;;;;16.98;6.10;;;7.50;99.90;;;;;;5032131;28;20073;-71
2022/04/29 01:51:49;;;;;;;7.10;5.60;;;7.40;99.90;;;;;;5033629;28;20033;-71
2022/04/29 01:54:15;;;;;;;10.27;5.97;;;7.40;99.90;;;;;;5033638;28;20459;-71
2022/04/29 01:56:41;;;;;;;13.27;6.13;;;7.40;99.90;;;;;;5033151;28;20049;-72
2022/04/29 01:59:07;;;;;;;9.52;5.88;;;7.50;99.90;;;;;;5033540;28;20041;-72
2022/04/29 02:01:34;;;;;;;15.15;5.30;;;7.40;99.90;;;;;;5033731;28;20029;-73
2022/04/29 02:04:00;;;;;;;12.20;6.28;;;7.50;99.90;;;;;;5032893;28;20049;-72
2022/04/29 02:06:26;;;;;;;9.45;6.22;;;7.60;99.90;;;;;;5033789;28;20111;-72
2022/04/29 02:08:53;;;;;;;6.40;5.50;;;7.50;99.90;;;;;;5033440;28;20053;-71
2022/04/29 02:11:19;;;;;;;10.52;5.88;;;7.50;99.90;;;;;;5032955;28;20025;-72
2022/04/29 02:13:46;;;;;;;14.88;6.63;;;7.40;99.90;;;;;;5034774;28;20035;-72
2022/04/29 02:16:12;;;;;;;10.38;5.82;;;7.40;99.90;;;;;;5033707;28;20059;-71
2022/04/29 02:18:38;;;;;;;16.30;6.47;;;7.40;99.90;;;;;;5032650;28;20025;-73
2022/04/29 02:21:04;;;;;;;16.10;6.25;;;7.40;99.90;;;;;;5033239;28;20029;-72
2022/04/29 02:23:29;;;;;;;16.23;6.50;;;7.40;99.90;;;;;;5033410;28;20018;-71
2022/04/29 02:25:57;;;;;;;10.98;6.00;;;7.40;99.90;;;;;;5032666;28;20493;-72
2022/04/29 02:28:23;;;;;;;12.45;6.18;;;7.30;99.90;;;;;;5034059;28;20063;-71
2022/04/29 02:30:49;;;;;;;11.82;5.72;;;7.40;99.90;;;;;;5033065;28;20117;-73
2022/04/29 02:33:14;;;;;;;9.23;6.22;;;7.30;99.90;;;;;;5032374;28;20052;-73
2022/04/29 02:35:40;;;;;;;12.27;6.43;;;7.40;99.90;;;;;;5032932;28;20048;-72
2022/04/29 02:38:05;;;;;;;8.52;5.88;;;7.30;99.90;;;;;;5032077;28;20033;-71
2022/04/29 02:40:31;;;;;;;13.80;6.88;;;7.30;99.90;;;;;;5033031;28;20027;-71
2022/04/29 02:42:56;;;;;;;11.25;6.72;;;7.30;99.90;;;;;;5032617;28;20021;-71
2022/04/29 02:45:22;;;;;;;17.38;6.53;;;7.30;99.90;;;;;;5032485;28;20092;-71
2022/04/29 02:47:47;;;;;;;11.68;6.15;;;7.30;99.90;;;;;;5033057;28;20025;-74
2022/04/29 02:50:13;;;;;;;10.05;6.38;;;7.30;99.90;;;;;;5032816;28;20021;-73
2022/04/29 02:52:38;;;;;;;8.95;6.22;;;7.30;99.90;;;;;;5032425;28;20064;-72
2022/04/29 02:55:04;;;;;;;16.85;8.57;;;7.30;99.90;;;;;;5032164;28;20493;-72
2022/04/29 02:57:30;;;;;;;14.65;6.97;;;7.20;99.90;;;;;;5032624;28;20056;-71
2022/04/29 02:59:56;;;;;;;9.02;5.97;;;7.30;99.90;;;;;;5031846;28;20052;-72
2022/04/29 03:02:24;;;;;;;17.25;7.97;;;7.20;99.90;;;;;;5032733;28;20381;-73
2022/04/29 03:04:49;;;;;;;21.25;7.03;;;7.20;99.90;;;;;;5032333;28;20026;-71
2022/04/29 03:07:15;;;;;;;13.63;7.45;;;7.20;99.90;;;;;;5031951;28;20071;-71
2022/04/29 03:09:41;;;;;;;12.65;7.25;;;7.20;99.90;;;;;;5032557;28;20026;-72
2022/04/29 03:12:12;;;;;;;7.78;6.15;;;7.10;99.90;;;;;;5032029;28;20466;-72
2022/04/29 03:14:38;;;;;;;11.45;6.75;;;7.10;99.90;;;;;;5031685;28;20045;-71
2022/04/29 03:17:04;;;;;;;8.80;6.45;;;7.20;99.90;;;;;;5032142;28;20043;-72
2022/04/29 03:19:29;;;;;;;10.73;6.45;;;7.20;99.90;;;;;;5032531;28;20044;-71
2022/04/29 03:21:55;;;;;;;12.98;7.40;;;7.20;99.90;;;;;;5031338;28;20112;-72
2022/04/29 03:24:21;;;;;;;12.15;6.55;;;7.20;99.90;;;;;;5032340;28;20104;-71
2022/04/29 03:26:47;;;;;;;14.85;6.47;;;7.20;99.90;;;;;;5032286;28;20489;-72
2022/04/29 03:29:12;;;;;;;13.57;6.25;;;7.10;99.90;;;;;;5031766;28;20026;-72
2022/04/29 03:31:38;;;;;;;12.13;5.85;;;7.10;99.90;;;;;;5032278;28;20021;-71
2022/04/29 03:34:04;;;;;;;19.52;6.85;;;7.10;99.90;;;;;;5031784;28;20115;-73
2022/04/29 03:36:30;;;;;;;12.82;6.88;;;7.10;99.90;;;;;;5031407;28;20034;-73
2022/04/29 03:38:56;;;;;;;13.77;6.78;;;7.10;99.90;;;;;;5031856;28;20489;-72
2022/04/29 03:41:22;;;;;;;10.27;6.75;;;7.10;99.90;;;;;;5031277;28;20366;-72
2022/04/29 03:43:48;;;;;;;10.35;5.85;;;7.10;99.90;;;;;;5031838;28;20466;-71
2022/04/29 03:46:15;;;;;;;13.75;5.93;;;7.10;99.90;;;;;;5033674;28;20037;-71
2022/04/29 03:51:24;;;;;;;9.25;6.07;;;7.10;99.90;;;;;;5036271;28;20056;-72
2022/04/29 03:53:50;;;;;;;11.82;6.82;;;7.10;99.90;;;;;;5035665;28;20026;-72
2022/04/29 03:56:17;;;;;;;11.75;6.47;;;7.00;99.90;;;;;;5035165;28;20061;-71
2022/04/29 03:58:43;;;;;;;10.68;5.85;;;7.10;99.90;;;;;;5036090;28;20018;-71
2022/04/29 04:01:10;;;;;;;19.05;7.80;;;7.10;99.90;;;;;;5035761;28;20085;-74
2022/04/29 04:03:35;;;;;;;10.15;6.40;;;7.00;99.90;;;;;;5035221;28;20450;-72
2022/04/29 04:08:45;;;;;;;10.18;6.45;;;7.00;99.90;;;;;;5035800;28;20091;-72
2022/04/29 04:11:10;;;;;;;12.85;6.85;;;7.00;99.90;;;;;;5034962;28;20038;-72
2022/04/29 04:13:37;;;;;;;11.20;6.47;;;7.00;99.90;;;;;;5035582;28;20495;-71
2022/04/29 04:16:03;;;;;;;21.02;7.03;;;7.00;99.90;;;;;;5035415;28;20051;-72
2022/04/29 04:18:28;;;;;;;8.32;5.95;;;7.00;99.90;;;;;;5034913;28;20025;-72
2022/04/29 04:20:54;;;;;;;12.25;6.15;;;6.90;99.90;;;;;;5035146;28;20040;-72
2022/04/29 04:23:19;;;;;;;20.60;6.70;;;6.90;99.90;;;;;;5035674;28;20022;-72
2022/04/29 04:25:45;;;;;;;12.57;7.97;;;6.90;99.90;;;;;;5034875;28;20041;-72
2022/04/29 04:28:13;;;;;;;12.48;6.38;;;6.90;99.90;;;;;;5035962;28;20041;-73
2022/04/29 04:30:39;;;;;;;15.02;6.70;;;6.90;99.90;;;;;;5036973;28;20488;-73
2022/04/29 04:33:05;;;;;;;15.93;6.50;;;6.90;99.90;;;;;;5036591;28;20037;-72
2022/04/29 04:35:30;;;;;;;10.25;6.05;;;6.90;99.90;;;;;;5035560;28;20029;-71
2022/04/29 04:37:56;;;;;;;18.48;7.10;;;6.90;99.90;;;;;;5034468;28;20030;-72
2022/04/29 04:40:22;;;;;;;21.00;6.88;;;6.90;99.90;;;;;;5035329;28;20367;-72
2022/04/29 04:42:47;;;;;;;16.45;5.90;;;6.80;99.90;;;;;;5035009;28;20021;-72
2022/04/29 04:45:14;;;;;;;13.63;7.50;;;6.90;99.90;;;;;;5034426;28;20036;-72
2022/04/29 04:47:40;;;;;;;10.05;6.22;;;6.90;99.90;;;;;;5035025;28;20048;-72
2022/04/29 04:50:06;;;;;;;14.43;5.70;;;6.90;99.90;;;;;;5034679;28;20029;-72
2022/04/29 04:52:32;;;;;;;15.10;5.70;;;6.90;99.90;;;;;;5034374;28;20025;-72
2022/04/29 04:54:57;;;;;;;10.73;6.15;;;6.90;99.90;;;;;;5034381;28;20124;-72
2022/04/29 04:57:23;;;;;;;12.90;6.05;;;6.90;99.90;;;;;;5034718;28;20160;-72
2022/04/29 04:59:48;;;;;;;11.70;6.40;;;6.90;99.90;;;;;;5033933;28;20053;-71
2022/04/29 05:02:14;;;;;;;10.00;6.32;;;6.90;99.90;;;;;;5034775;28;20060;-73
2022/04/29 05:04:42;;;;;;;14.35;6.43;;;6.90;99.90;;;;;;5034603;28;20526;-72
2022/04/29 05:07:08;;;;;;;12.32;6.22;;;6.90;99.90;;;;;;5033633;28;20512;-73
2022/04/29 05:09:33;;;;;;;13.18;7.47;;;6.90;99.90;;;;;;5034665;28;20026;-71
2022/04/29 05:11:59;;;;;;;17.52;6.93;;;6.90;99.90;;;;;;5034331;28;20128;-72
2022/04/29 05:14:24;;;;;;;12.63;6.57;;;6.90;99.90;;;;;;5034217;28;20036;-72
2022/04/29 05:16:50;;;;;;;12.02;6.97;;;6.90;99.90;;;;;;5033142;28;20030;-72
2022/04/29 05:19:15;;;;;;;19.92;6.55;;;7.00;99.90;;;;;;5034460;28;20477;-73
2022/04/29 05:21:41;;;;;;;14.98;6.65;;;7.00;99.90;;;;;;5033763;28;20487;-73
2022/04/29 05:24:06;;;;;;;13.55;7.00;;;7.00;99.90;;;;;;5034446;28;20027;-74
2022/04/29 05:26:33;;;;;;;15.05;7.32;;;6.90;99.90;;;;;;5034460;28;20041;-74
2022/04/29 05:28:58;;;;;;;19.50;6.63;;;7.00;99.90;;;;;;5033518;28;20040;-71
2022/04/29 05:31:24;;;;;;;18.23;6.75;;;6.90;99.90;;;;;;5037083;28;20041;-72
2022/04/29 05:33:50;;;;;;;14.68;6.97;;;7.00;99.90;;;;;;5033564;28;20056;-74
2022/04/29 05:36:18;;;;;;;15.38;6.90;;;7.00;99.90;;;;;;5034027;28;20032;-73
2022/04/29 05:44:12;;;;;;;10.32;7.72;;;7.10;99.90;;;;;;5033816;28;20032;-71
2022/04/29 05:46:38;;;;;;;9.85;6.53;;;7.20;99.90;;;;;;5034209;28;20026;-71
2022/04/29 05:49:04;;;;;;;16.33;7.00;;;7.20;99.90;;;;;;5033069;28;20123;-73
2022/04/29 05:51:30;;;;;;;12.75;7.15;;;7.20;99.90;;;;;;5034234;28;20440;-72
2022/04/29 05:53:55;;;;;;;16.67;7.70;;;7.30;99.90;;;;;;5033648;28;20076;-72
2022/04/29 05:56:21;;;;;;;15.57;8.07;;;7.30;99.90;;;;;;5033202;28;20053;-72
2022/04/29 05:58:46;;;;;;;10.50;6.90;;;7.30;99.90;;;;;;5033950;28;20044;-72
2022/04/29 06:01:12;;;;;;;14.85;6.90;;;7.50;99.90;;;;;;5033892;28;20021;-72
2022/04/29 06:03:37;;;;;;;15.88;8.60;;;7.60;99.90;;;;;;5033011;28;20091;-72
2022/04/29 06:06:03;;;;;;;13.82;6.13;;;7.60;99.90;;;;;;5033425;28;20033;-71
2022/04/29 06:08:29;;;;;;;12.02;7.10;;;7.70;99.90;;;;;;5032708;28;20418;-72
2022/04/29 06:10:54;;;;;;;13.45;5.78;;;7.70;99.90;;;;;;5032626;28;20030;-71
2022/04/29 06:13:20;;;;;;;17.52;6.50;;;7.80;99.90;;;;;;5033482;28;20481;-72
2022/04/29 06:15:46;;;;;;;15.85;7.15;;;7.90;99.90;;;;;;5033826;28;20033;-71
2022/04/29 06:18:11;;;;;;;16.83;7.80;;;7.90;99.90;;;;;;5032591;28;20385;-71
2022/04/29 06:20:37;;;;;;;15.75;7.05;;;7.90;99.90;;;;;;5033678;28;20028;-72
2022/04/29 06:23:03;;;;;;;9.02;6.53;;;8.00;99.90;;;;;;5032937;28;20500;-72
2022/04/29 06:25:28;;;;;;;18.05;7.68;;;8.10;99.90;;;;;;5033065;28;20022;-71
2022/04/29 06:27:54;;;;;;;13.90;6.30;;;8.20;99.90;;;;;;5032761;28;20018;-72
2022/04/29 06:30:19;;;;;;;12.57;6.63;;;8.20;99.90;;;;;;5032671;28;20072;-72
2022/04/29 06:32:45;;;;;;;13.23;6.18;;;8.20;99.90;;;;;;5033077;28;20373;-72
2022/04/29 06:35:11;;;;;;;19.30;7.13;;;8.30;99.90;;;;;;5032674;28;20038;-72
2022/04/29 06:37:37;;;;;;;17.60;6.47;;;8.30;99.90;;;;;;5032325;28;20104;-72
2022/04/29 06:40:06;;;;;;;15.95;6.47;;;8.40;99.90;;;;;;5032655;28;20555;-72
2022/04/29 06:42:41;;;;;;;8.68;5.43;;;8.40;99.90;;;;;;5032889;28;20026;-72
2022/04/29 06:45:08;;;;;;;11.43;6.28;;;8.50;99.90;;;;;;5031843;28;20443;-71
2022/04/29 06:47:34;;;;;;;15.30;7.32;;;8.50;99.90;;;;;;5032698;28;20029;-73
2022/04/29 06:49:59;;;;;;;16.30;6.55;;;8.50;99.90;;;;;;5032520;28;20049;-72
2022/04/29 06:52:25;;;;;;;15.98;5.88;;;8.60;99.90;;;;;;5032221;28;20017;-72
2022/04/29 06:54:50;;;;;;;9.68;5.90;;;8.70;99.90;;;;;;5032347;28;20548;-73
2022/04/29 06:57:16;;;;;;;14.00;5.55;;;8.80;99.90;;;;;;5032534;28;20033;-72
2022/04/29 06:59:41;;;;;;;13.35;6.38;;;8.90;99.90;;;;;;5031945;28;20063;-71
2022/04/29 07:02:07;;;;;;;13.02;6.30;;;9.00;99.90;;;;;;5032682;28;20025;-72
2022/04/29 07:04:32;;;;;;;19.77;6.28;;;9.10;99.90;;;;;;5032730;28;20036;-73
2022/04/29 07:06:58;;;;;;;11.73;6.63;;;9.30;99.90;;;;;;5030341;28;20018;-73
2022/04/29 07:09:26;;;;;;;14.68;5.68;;;9.40;99.90;;;;;;5032378;28;20029;-72
2022/04/29 07:11:52;;;;;;;11.82;6.22;;;9.40;99.90;;;;;;5032009;28;20053;-73
2022/04/29 07:14:18;;;;;;;17.13;6.72;;;9.50;99.90;;;;;;5031594;28;20493;-73
2022/04/29 07:16:44;;;;;;;12.18;5.95;;;9.60;99.90;;;;;;5032348;28;20025;-73
2022/04/29 07:19:10;;;;;;;13.60;5.80;;;9.60;99.90;;;;;;5032196;28;20030;-72
2022/04/29 07:21:38;;;;;;;11.13;5.72;;;9.60;99.90;;;;;;5031509;28;20021;-71
2022/04/29 07:24:04;;;;;;;11.00;5.85;;;9.50;99.90;;;;;;5032013;28;20029;-72
2022/04/29 07:26:29;;;;;;;9.50;5.35;;;9.60;99.90;;;;;;5031446;28;20033;-72
2022/04/29 07:28:55;;;;;;;19.77;6.82;;;9.60;99.90;;;;;;5032135;28;20021;-72
2022/04/29 07:31:20;;;;;;;13.10;5.85;;;9.70;99.90;;;;;;5032129;28;20052;-72
2022/04/29 07:33:46;;;;;;;17.92;6.63;;;9.70;99.90;;;;;;5031658;28;20029;-72
2022/04/29 07:41:46;;;;;;;17.00;6.90;;;10.00;99.90;;;;;;5031491;28;20028;-72
2022/04/29 07:44:13;;;;;;;12.10;5.85;;;10.10;99.90;;;;;;5031503;28;20026;-72
2022/04/29 07:46:43;;;;;;;16.75;6.07;;;10.20;99.90;;;;;;5031815;28;20397;-72
2022/04/29 07:49:09;;;;;;;12.23;5.22;;;10.20;99.90;;;;;;5031069;28;20473;-72
2022/04/29 07:51:38;;;;;;;10.25;6.03;;;10.10;99.90;;;;;;5032127;28;20030;-72
2022/04/29 07:54:05;;;;;;;26.38;6.13;;;10.00;99.90;;;;;;5031619;28;20469;-73
2022/04/29 07:56:30;;;;;;;11.60;5.68;;;9.90;99.90;;;;;;5031292;28;20061;-73
2022/04/29 07:58:57;;;;;;;12.65;5.85;;;9.90;99.90;;;;;;5032459;28;20504;-72
2022/04/29 08:01:23;;;;;;;9.88;5.45;;;9.80;99.90;;;;;;5032021;28;20036;-72
2022/04/29 08:03:49;;;;;;;12.13;6.35;;;9.90;99.90;;;;;;5030907;28;20085;-71
2022/04/29 08:06:14;;;;;;;14.25;5.47;;;9.90;99.90;;;;;;5032005;28;20523;-72
2022/04/29 08:08:40;;;;;;;11.43;5.47;;;10.00;99.90;;;;;;5031052;28;20063;-73
2022/04/29 08:11:07;;;;;;;11.60;6.45;;;10.00;99.90;;;;;;5031698;28;20025;-72
2022/04/29 08:13:33;;;;;;;14.80;5.97;;;10.00;99.90;;;;;;5031910;28;20029;-72
2022/04/29 08:15:59;;;;;;;13.75;6.07;;;10.00;99.90;;;;;;5030808;28;20442;-72
2022/04/29 08:18:26;;;;;;;11.70;5.45;;;10.00;99.90;;;;;;5031665;28;20430;-72
2022/04/29 08:20:52;;;;;;;13.48;5.60;;;10.10;99.90;;;;;;5031825;28;20033;-73
2022/04/29 08:23:17;;;;;;;12.18;5.90;;;10.20;99.90;;;;;;5031319;28;20139;-72
2022/04/29 08:25:43;;;;;;;11.50;5.38;;;10.20;99.90;;;;;;5031717;28;20470;-72
2022/04/29 08:28:08;;;;;;;11.13;5.05;;;10.20;99.90;;;;;;5031511;28;20033;-71
2022/04/29 08:30:34;;;;;;;11.05;4.72;;;10.30;99.90;;;;;;5030863;28;20029;-72
2022/04/29 08:33:00;;;;;;;9.55;4.93;;;10.30;99.90;;;;;;5034181;28;20033;-72
2022/04/29 08:35:26;;;;;;;11.38;5.38;;;10.20;99.90;;;;;;5035893;28;20065;-73
2022/04/29 08:37:56;;;;;;;13.25;4.82;;;10.20;99.90;;;;;;5034593;28;20026;-72
2022/04/29 08:40:23;;;;;;;11.98;4.60;;;10.20;99.90;;;;;;5035570;28;20029;-73
2022/04/29 08:42:49;;;;;;;10.10;4.55;;;10.30;99.90;;;;;;5034955;28;20026;-73
2022/04/29 08:45:17;;;;;;;8.77;4.72;;;10.30;99.90;;;;;;5034431;28;20083;-73
2022/04/29 08:47:44;;;;;;;13.13;4.70;;;10.30;99.90;;;;;;5035192;28;20067;-73
2022/04/29 08:50:16;;;;;;;7.43;5.10;;;10.30;99.90;;;;;;5035002;28;20037;-72
2022/04/29 08:52:42;;;;;;;20.88;5.03;;;10.40;99.90;;;;;;5034310;28;20111;-73
2022/04/29 09:00:44;;;;;;;14.25;4.57;;;10.50;99.90;;;;;;5035260;28;20112;-73
2022/04/29 09:03:17;;;;;;;12.70;5.13;;;10.50;99.90;;;;;;5034694;28;20502;-73
2022/04/29 09:05:44;;;;;;;13.88;5.53;;;10.70;99.90;;;;;;5034248;28;20079;-74
2022/04/29 09:08:14;;;;;;;9.40;4.82;;;10.80;99.90;;;;;;5034523;28;20032;-74
2022/04/29 09:10:54;;;;;;;13.77;4.85;;;10.80;99.90;;;;;;5034875;28;20136;-74
2022/04/29 09:13:28;;;;;;;16.05;5.68;;;10.80;99.90;;;;;;5034101;28;20041;-73
2022/04/29 09:15:58;;;;;;;13.75;5.82;;;10.80;99.90;;;;;;5034622;28;20069;-73
2022/04/29 09:18:42;;;;;;;9.98;5.60;;;10.80;99.90;;;;;;5034947;28;20022;-72
2022/04/29 09:21:16;;;;;;;14.10;6.20;;;10.90;99.90;;;;;;5033936;28;20366;-72
2022/04/29 09:23:54;;;;;;;11.95;5.88;;;11.00;99.90;;;;;;5034571;28;20029;-72
2022/04/29 09:26:33;;;;;;;17.48;5.90;;;11.00;99.90;;;;;;5033669;28;20039;-73
2022/04/29 09:29:20;;;;;;;15.32;5.90;;;11.10;99.90;;;;;;5033957;28;20029;-73
2022/04/29 09:32:00;;;;;;;8.30;5.68;;;11.10;99.90;;;;;;5034318;28;20029;-73
2022/04/29 09:34:50;;;;;;;9.77;5.63;;;11.30;99.90;;;;;;5033476;28;20049;-74
2022/04/29 09:37:18;;;;;;;13.95;6.22;;;11.30;99.90;;;;;;5034111;28;20026;-73
2022/04/29 09:39:50;;;;;;;12.50;5.70;;;11.40;99.90;;;;;;5033922;28;20033;-73
2022/04/29 09:42:16;;;;;;;10.88;6.43;;;11.40;99.90;;;;;;5033458;28;20033;-73
2022/04/29 09:44:42;;;;;;;13.57;5.65;;;11.40;99.90;;;;;;5033466;28;20033;-73
2022/04/29 09:47:21;;;;;;;17.33;6.43;;;11.50;99.90;;;;;;5033125;28;20023;-73
2022/04/29 09:49:56;;;;;;;14.25;5.95;;;11.50;99.90;;;;;;5034122;28;20056;-74
2022/04/29 09:52:23;;;;;;;9.93;5.63;;;11.50;99.90;;;;;;5033850;28;20057;-74
2022/04/29 09:54:50;;;;;;;11.05;6.65;;;11.60;99.90;;;;;;5032864;28;20049;-74
2022/04/29 09:57:18;;;;;;;15.88;7.05;;;11.50;99.90;;;;;;5034058;28;20147;-73
2022/04/29 09:59:51;;;;;;;8.75;6.53;;;11.40;99.90;;;;;;5033846;28;20026;-74
2022/04/29 10:02:23;;;;;;;18.63;6.25;;;11.50;99.90;;;;;;5033174;28;20029;-73
2022/04/29 10:04:50;;;;;;;15.45;6.70;;;11.60;99.90;;;;;;5033560;28;20140;-73
2022/04/29 10:07:17;;;;;;;16.95;8.10;;;11.60;99.90;;;;;;5033857;28;20036;-73
2022/04/29 10:09:50;;;;;;;16.55;6.18;;;11.70;99.90;;;;;;5032895;28;20026;-73
2022/04/29 10:12:24;;;;;;;13.13;6.13;;;11.80;99.90;;;;;;5033670;28;20054;-73
2022/04/29 10:14:54;;;;;;;14.50;6.70;;;11.80;99.90;;;;;;5033129;28;20034;-72
2022/04/29 10:23:07;;;;;;;15.30;6.80;;;11.90;99.90;;;;;;5032807;28;20210;-72
2022/04/29 10:25:34;;;;;;;7.40;6.18;;;11.90;99.90;;;;;;5033138;28;20052;-74
2022/04/29 10:28:01;;;;;;;14.60;6.32;;;11.90;99.90;;;;;;5033091;28;20049;-72
2022/04/29 10:30:35;;;;;;;11.52;5.93;;;11.90;99.90;;;;;;5032564;28;20131;-72
2022/04/29 10:33:04;;;;;;;17.05;6.40;;;11.80;99.90;;;;;;5032874;28;20029;-73
2022/04/29 10:35:42;;;;;;;9.57;6.00;;;11.70;99.90;;;;;;5033034;28;20087;-73
2022/04/29 10:38:28;;;;;;;14.18;6.45;;;11.80;99.90;;;;;;5032251;28;20048;-73
2022/04/29 10:41:15;;;;;;;6.97;6.28;;;11.90;99.90;;;;;;5032812;28;20079;-72
2022/04/29 10:43:49;;;;;;;12.18;6.10;;;11.90;99.90;;;;;;5032632;28;20025;-72
2022/04/29 10:46:20;;;;;;;14.88;6.38;;;11.90;99.90;;;;;;5032908;28;20048;-73
2022/04/29 10:49:27;;;;;;;12.48;6.13;;;11.90;99.90;;;;;;5033074;28;20057;-73
2022/04/29 10:51:55;;;;;;;9.55;6.25;;;11.90;99.90;;;;;;5031440;28;20099;-73
2022/04/29 10:54:40;;;;;;;12.20;6.35;;;11.90;99.90;;;;;;5032438;28;20509;-73
2022/04/29 10:57:08;;;;;;;9.75;6.20;;;12.00;99.90;;;;;;5032661;28;20370;-73
2022/04/29 11:00:00;;;;;;;17.50;6.80;;;12.20;99.90;;;;;;5031965;28;20049;-73
2022/04/29 11:02:31;;;;;;;15.65;6.75;;;12.40;99.90;;;;;;5032713;28;20036;-73
2022/04/29 11:04:58;;;;;;;14.20;6.55;;;12.40;99.90;;;;;;5031447;28;20042;-72
2022/04/29 11:07:41;;;;;;;8.98;5.63;;;12.40;99.90;;;;;;5032621;28;20124;-73
2022/04/29 11:10:09;;;;;;;14.25;7.45;;;12.40;99.90;;;;;;5032317;28;20144;-73
2022/04/29 11:12:40;;;;;;;10.82;6.18;;;12.40;99.90;;;;;;5031589;28;20029;-73
2022/04/29 11:15:18;;;;;;;15.55;6.50;;;12.40;99.90;;;;;;5031937;28;20033;-73
2022/04/29 11:17:44;;;;;;;12.02;7.78;;;12.60;99.90;;;;;;5032292;28;20079;-73
2022/04/29 11:20:14;;;;;;;9.23;6.68;;;12.70;99.90;;;;;;5031328;28;20029;-73
2022/04/29 11:25:25;;;;;;;8.35;6.22;;;12.60;99.90;;;;;;5033056;28;20056;-73
2022/04/29 11:27:51;;;;;;;11.95;7.03;;;12.70;99.90;;;;;;5032075;28;20474;-71
2022/04/29 11:30:18;;;;;;;13.82;7.68;;;12.70;99.90;;;;;;5032596;28;20021;-73
2022/04/29 11:32:46;;;;;;;10.35;6.25;;;12.80;99.90;;;;;;5032965;28;20053;-72
2022/04/29 11:35:12;;;;;;;7.55;5.55;;;13.00;99.90;;;;;;5034213;28;20033;-74
2022/04/29 11:37:38;;;;;;;12.38;6.82;;;13.20;99.90;;;;;;5035688;28;20114;-73
2022/04/29 11:40:09;;;;;;;10.43;6.63;;;13.30;99.90;;;;;;5031568;28;20037;-73
2022/04/29 11:42:35;;;;;;;7.13;6.18;;;13.30;99.90;;;;;;5031960;28;20048;-73
2022/04/29 11:45:08;;;;;;;9.15;6.53;;;13.20;99.90;;;;;;5031971;28;20133;-72
2022/04/29 11:47:34;;;;;;;16.05;6.78;;;13.30;99.90;;;;;;5031422;28;20484;-72
2022/04/29 11:50:01;;;;;;;16.23;6.50;;;13.40;99.90;;;;;;5031844;28;20033;-73
2022/04/29 11:52:31;;;;;;;9.63;5.88;;;13.60;99.90;;;;;;5032001;28;20028;-73
2022/04/29 11:54:58;;;;;;;10.88;5.68;;;13.70;99.90;;;;;;5030640;28;20182;-73
2022/04/29 11:57:26;;;;;;;8.85;5.45;;;13.90;99.90;;;;;;5032153;28;20021;-73
2022/04/29 11:59:52;;;;;;;8.02;5.63;;;14.00;99.90;;;;;;5031445;28;20470;-73
2022/04/29 12:02:19;;;;;;;8.60;5.68;;;13.80;99.90;;;;;;5031134;28;20026;-72
2022/04/29 12:05:02;;;;;;;12.82;5.80;;;13.80;99.90;;;;;;5031996;28;20414;-72
2022/04/29 12:07:37;;;;;;;10.88;5.70;;;13.80;99.90;;;;;;5033650;28;20473;-73
2022/04/29 12:10:15;;;;;;;9.15;5.05;;;13.80;99.90;;;;;;5035015;28;20044;-73
2022/04/29 12:12:40;;;;;;;6.07;4.45;;;13.80;99.90;;;;;;5035864;28;20057;-74
2022/04/29 12:15:09;;;;;;;7.35;6.07;;;13.80;99.90;;;;;;5034605;28;20099;-73
2022/04/29 12:17:39;;;;;;;5.82;4.90;;;13.80;99.90;;;;;;5035600;28;20021;-74
2022/04/29 12:20:07;;;;;;;9.13;5.38;;;13.90;99.80;;;;;;5035317;28;20026;-72
2022/04/29 12:22:36;;;;;;;9.20;5.25;;;13.80;99.90;;;;;;5034829;28;20037;-72
2022/04/29 12:25:18;;;;;;;6.30;5.05;;;13.60;99.90;;;;;;5035195;28;20473;-73
2022/04/29 12:27:43;;;;;;;11.73;5.85;;;13.60;99.90;;;;;;5035348;28;20504;-73
2022/04/29 12:36:07;;;;;;;9.60;5.30;;;13.90;99.90;;;;;;5034292;28;20049;-74
2022/04/29 12:38:38;;;;;;;12.52;6.18;;;14.00;99.90;;;;;;5035227;28;20029;-73
2022/04/29 12:41:25;;;;;;;9.88;5.47;;;14.00;99.90;;;;;;5035651;28;20035;-73
2022/04/29 12:44:08;;;;;;;6.80;5.93;;;14.10;99.90;;;;;;5035132;28;20079;-73
2022/04/29 12:46:34;;;;;;;8.30;5.38;;;14.10;99.90;;;;;;5035186;28;20049;-73
2022/04/29 12:48:59;;;;;;;6.60;6.00;;;14.20;99.60;;;;;;5034788;28;20465;-72
2022/04/29 12:51:31;;;;;;;13.68;6.53;;;14.00;99.90;;;;;;5034319;28;20108;-72
2022/04/29 12:53:57;;;;;;;9.57;6.63;;;13.80;99.80;;;;;;5033312;28;20021;-72
2022/04/29 12:56:34;;;;;;;12.98;7.03;;;13.90;99.90;;;;;;5034674;28;20048;-73
2022/04/29 12:59:03;;;;;;;6.95;6.15;;;14.00;99.90;;;;;;5033721;28;20040;-73
2022/04/29 13:01:39;;;;;;;10.70;6.65;;;14.20;99.70;;;;;;5034772;28;20111;-74
2022/04/29 13:04:06;;;;;;;9.60;6.90;;;14.20;99.90;;;;;;5034580;28;20131;-73
2022/04/29 13:06:32;;;;;;;8.05;7.30;;;14.10;99.90;;;;;;5034646;28;20035;-74
2022/04/29 13:09:00;;;;;;;9.38;6.65;;;14.00;99.90;;;;;;5034542;28;20029;-73
2022/04/29 13:11:26;;;;;;;8.55;6.80;;;14.20;99.90;;;;;;5034151;28;20025;-72
2022/04/29 13:13:53;;;;;;;10.82;7.93;;;14.30;99.90;;;;;;5034274;28;20029;-73
2022/04/29 13:16:20;;;;;;;10.10;7.05;;;14.20;99.80;;;;;;5034367;28;20133;-73
2022/04/29 13:18:46;;;;;;;8.32;7.35;;;14.00;99.90;;;;;;5033635;28;20378;-73
2022/04/29 13:21:13;;;;;;;9.85;7.22;;;14.00;99.90;;;;;;5034686;28;20026;-73
2022/04/29 13:23:41;;;;;;;14.15;7.75;;;14.00;99.90;;;;;;5034649;28;20363;-72
2022/04/29 13:26:07;;;;;;;10.80;7.22;;;14.00;99.90;;;;;;5033462;28;20032;-73